sensor_id;sensor_type;location;lat;lon;timestamp;P1;durP1;ratioP1;P2;durP2;ratioP2
71183;SDS011;58887;51.980;4.464;2023-04-03T00:02:18;4.66;;;4.66;;
71183;SDS011;58887;51.980;4.464;2023-04-03T00:04:44;6.98;;;6.98;;
71183;SDS011;58887;51.980;4.464;2023-04-03T00:07:11;10.11;;;10.11;;
71183;SDS011;58887;51.980;4.464;2023-04-03T00:09:39;11.79;;;11.79;;
71183;SDS011;58887;51.980;4.464;2023-04-03T00:12:05;11.97;;;11.97;;
71183;SDS011;58887;51.980;4.464;2023-04-03T00:14:30;11.24;;;11.24;;
71183;SDS011;58887;51.980;4.464;2023-04-03T00:16:57;12.99;;;12.99;;
71183;SDS011;58887;51.980;4.464;2023-04-03T00:19:22;15.84;;;15.84;;
71183;SDS011;58887;51.980;4.464;2023-04-03T00:21:48;14.51;;;14.51;;
71183;SDS011;58887;51.980;4.464;2023-04-03T00:24:13;14.81;;;14.81;;
71183;SDS011;58887;51.980;4.464;2023-04-03T00:26:39;16.96;;;16.96;;
71183;SDS011;58887;51.980;4.464;2023-04-03T00:29:04;17.07;;;17.07;;
71183;SDS011;58887;51.980;4.464;2023-04-03T00:31:30;17.99;;;17.99;;
71183;SDS011;58887;51.980;4.464;2023-04-03T00:33:55;16.97;;;16.97;;
71183;SDS011;58887;51.980;4.464;2023-04-03T00:36:23;18.01;;;18.01;;
71183;SDS011;58887;51.980;4.464;2023-04-03T00:38:48;14.31;;;14.31;;
71183;SDS011;58887;51.980;4.464;2023-04-03T00:41:14;14.57;;;14.57;;
71183;SDS011;58887;51.980;4.464;2023-04-03T00:43:39;13.98;;;13.98;;
71183;SDS011;58887;51.980;4.464;2023-04-03T00:46:06;15.82;;;15.82;;
71183;SDS011;58887;51.980;4.464;2023-04-03T00:48:36;19.92;;;19.92;;
71183;SDS011;58887;51.980;4.464;2023-04-03T00:51:07;16.26;;;16.26;;
71183;SDS011;58887;51.980;4.464;2023-04-03T00:53:39;11.95;;;11.95;;
71183;SDS011;58887;51.980;4.464;2023-04-03T00:56:16;12.57;;;12.57;;
71183;SDS011;58887;51.980;4.464;2023-04-03T00:58:48;15.99;;;15.99;;
71183;SDS011;58887;51.980;4.464;2023-04-03T01:01:21;14.30;;;14.30;;
71183;SDS011;58887;51.980;4.464;2023-04-03T01:03:50;13.26;;;13.26;;
71183;SDS011;58887;51.980;4.464;2023-04-03T01:06:16;11.52;;;11.52;;
71183;SDS011;58887;51.980;4.464;2023-04-03T01:08:47;8.98;;;8.98;;
71183;SDS011;58887;51.980;4.464;2023-04-03T01:11:15;8.71;;;8.71;;
71183;SDS011;58887;51.980;4.464;2023-04-03T01:13:40;10.97;;;10.97;;
71183;SDS011;58887;51.980;4.464;2023-04-03T01:16:09;10.02;;;10.02;;
71183;SDS011;58887;51.980;4.464;2023-04-03T01:18:36;5.00;;;5.00;;
71183;SDS011;58887;51.980;4.464;2023-04-03T01:26:41;10.51;;;10.51;;
71183;SDS011;58887;51.980;4.464;2023-04-03T01:29:06;8.07;;;8.07;;
71183;SDS011;58887;51.980;4.464;2023-04-03T01:34:02;5.74;;;5.74;;
71183;SDS011;58887;51.980;4.464;2023-04-03T01:36:30;4.85;;;4.85;;
71183;SDS011;58887;51.980;4.464;2023-04-03T01:38:58;3.53;;;3.53;;
71183;SDS011;58887;51.980;4.464;2023-04-03T01:41:25;4.68;;;4.68;;
71183;SDS011;58887;51.980;4.464;2023-04-03T01:43:51;6.16;;;6.16;;
71183;SDS011;58887;51.980;4.464;2023-04-03T01:46:18;5.64;;;5.64;;
71183;SDS011;58887;51.980;4.464;2023-04-03T01:48:45;6.69;;;6.69;;
71183;SDS011;58887;51.980;4.464;2023-04-03T01:51:11;6.12;;;6.12;;
71183;SDS011;58887;51.980;4.464;2023-04-03T01:53:37;5.39;;;5.39;;
71183;SDS011;58887;51.980;4.464;2023-04-03T01:56:02;4.76;;;4.76;;
71183;SDS011;58887;51.980;4.464;2023-04-03T01:58:28;3.47;;;3.47;;
71183;SDS011;58887;51.980;4.464;2023-04-03T02:00:54;4.38;;;4.38;;
71183;SDS011;58887;51.980;4.464;2023-04-03T02:03:19;6.66;;;6.66;;
71183;SDS011;58887;51.980;4.464;2023-04-03T02:05:47;5.75;;;5.75;;
71183;SDS011;58887;51.980;4.464;2023-04-03T02:08:14;3.98;;;3.98;;
71183;SDS011;58887;51.980;4.464;2023-04-03T02:10:43;4.97;;;4.97;;
71183;SDS011;58887;51.980;4.464;2023-04-03T02:13:10;5.17;;;5.17;;
71183;SDS011;58887;51.980;4.464;2023-04-03T02:15:37;3.71;;;3.71;;
71183;SDS011;58887;51.980;4.464;2023-04-03T02:18:03;4.49;;;4.49;;
71183;SDS011;58887;51.980;4.464;2023-04-03T02:20:29;5.12;;;5.12;;
71183;SDS011;58887;51.980;4.464;2023-04-03T02:22:55;5.26;;;5.26;;
71183;SDS011;58887;51.980;4.464;2023-04-03T02:25:21;6.07;;;6.07;;
71183;SDS011;58887;51.980;4.464;2023-04-03T02:27:47;3.24;;;3.24;;
71183;SDS011;58887;51.980;4.464;2023-04-03T02:30:12;4.31;;;4.31;;
71183;SDS011;58887;51.980;4.464;2023-04-03T02:32:39;3.40;;;3.40;;
71183;SDS011;58887;51.980;4.464;2023-04-03T02:35:06;3.88;;;3.88;;
71183;SDS011;58887;51.980;4.464;2023-04-03T02:37:32;3.86;;;3.86;;
71183;SDS011;58887;51.980;4.464;2023-04-03T02:39:59;3.58;;;3.58;;
71183;SDS011;58887;51.980;4.464;2023-04-03T02:42:24;3.98;;;3.98;;
71183;SDS011;58887;51.980;4.464;2023-04-03T02:44:50;3.42;;;3.42;;
71183;SDS011;58887;51.980;4.464;2023-04-03T02:47:15;3.34;;;3.34;;
71183;SDS011;58887;51.980;4.464;2023-04-03T02:49:41;2.37;;;2.37;;
71183;SDS011;58887;51.980;4.464;2023-04-03T02:52:10;3.33;;;3.33;;
71183;SDS011;58887;51.980;4.464;2023-04-03T02:54:42;2.99;;;2.99;;
71183;SDS011;58887;51.980;4.464;2023-04-03T02:57:09;2.73;;;2.73;;
71183;SDS011;58887;51.980;4.464;2023-04-03T02:59:35;2.52;;;2.52;;
71183;SDS011;58887;51.980;4.464;2023-04-03T03:02:01;2.47;;;2.47;;
71183;SDS011;58887;51.980;4.464;2023-04-03T03:04:28;2.46;;;2.46;;
71183;SDS011;58887;51.980;4.464;2023-04-03T03:06:55;1.79;;;1.79;;
71183;SDS011;58887;51.980;4.464;2023-04-03T03:09:22;1.82;;;1.82;;
71183;SDS011;58887;51.980;4.464;2023-04-03T03:11:48;1.89;;;1.89;;
71183;SDS011;58887;51.980;4.464;2023-04-03T03:14:13;1.75;;;1.75;;
71183;SDS011;58887;51.980;4.464;2023-04-03T03:16:38;2.11;;;2.11;;
71183;SDS011;58887;51.980;4.464;2023-04-03T03:19:05;2.01;;;2.01;;
71183;SDS011;58887;51.980;4.464;2023-04-03T03:21:31;1.80;;;1.80;;
71183;SDS011;58887;51.980;4.464;2023-04-03T03:23:57;1.97;;;1.97;;
71183;SDS011;58887;51.980;4.464;2023-04-03T03:26:22;2.37;;;2.37;;
71183;SDS011;58887;51.980;4.464;2023-04-03T03:28:48;1.74;;;1.74;;
71183;SDS011;58887;51.980;4.464;2023-04-03T03:31:14;1.70;;;1.70;;
71183;SDS011;58887;51.980;4.464;2023-04-03T03:33:41;1.57;;;1.57;;
71183;SDS011;58887;51.980;4.464;2023-04-03T03:36:07;1.55;;;1.55;;
71183;SDS011;58887;51.980;4.464;2023-04-03T03:38:32;1.88;;;1.88;;
71183;SDS011;58887;51.980;4.464;2023-04-03T03:40:59;1.80;;;1.80;;
71183;SDS011;58887;51.980;4.464;2023-04-03T03:43:24;1.94;;;1.94;;
71183;SDS011;58887;51.980;4.464;2023-04-03T03:45:52;1.78;;;1.78;;
71183;SDS011;58887;51.980;4.464;2023-04-03T03:48:23;1.65;;;1.65;;
71183;SDS011;58887;51.980;4.464;2023-04-03T03:50:48;1.79;;;1.79;;
71183;SDS011;58887;51.980;4.464;2023-04-03T03:53:16;1.85;;;1.85;;
71183;SDS011;58887;51.980;4.464;2023-04-03T03:55:43;1.96;;;1.96;;
71183;SDS011;58887;51.980;4.464;2023-04-03T03:58:09;2.11;;;2.11;;
71183;SDS011;58887;51.980;4.464;2023-04-03T04:00:35;1.83;;;1.83;;
71183;SDS011;58887;51.980;4.464;2023-04-03T04:03:00;1.85;;;1.85;;
71183;SDS011;58887;51.980;4.464;2023-04-03T04:05:26;2.55;;;2.55;;
71183;SDS011;58887;51.980;4.464;2023-04-03T04:07:51;3.31;;;3.31;;
71183;SDS011;58887;51.980;4.464;2023-04-03T04:10:17;3.71;;;3.71;;
71183;SDS011;58887;51.980;4.464;2023-04-03T04:12:42;3.95;;;3.95;;
71183;SDS011;58887;51.980;4.464;2023-04-03T04:15:08;4.05;;;4.05;;
71183;SDS011;58887;51.980;4.464;2023-04-03T04:17:34;3.11;;;3.11;;
71183;SDS011;58887;51.980;4.464;2023-04-03T04:20:00;2.90;;;2.90;;
71183;SDS011;58887;51.980;4.464;2023-04-03T04:22:26;2.82;;;2.82;;
71183;SDS011;58887;51.980;4.464;2023-04-03T04:24:52;3.44;;;3.44;;
71183;SDS011;58887;51.980;4.464;2023-04-03T04:27:17;3.57;;;3.57;;
71183;SDS011;58887;51.980;4.464;2023-04-03T04:29:43;3.79;;;3.79;;
71183;SDS011;58887;51.980;4.464;2023-04-03T04:32:08;4.28;;;4.28;;
71183;SDS011;58887;51.980;4.464;2023-04-03T04:34:34;5.16;;;5.16;;
71183;SDS011;58887;51.980;4.464;2023-04-03T04:36:59;5.46;;;5.46;;
71183;SDS011;58887;51.980;4.464;2023-04-03T04:39:25;6.36;;;6.36;;
71183;SDS011;58887;51.980;4.464;2023-04-03T04:41:50;5.30;;;5.30;;
71183;SDS011;58887;51.980;4.464;2023-04-03T04:44:17;5.19;;;5.19;;
71183;SDS011;58887;51.980;4.464;2023-04-03T04:46:43;4.57;;;4.57;;
71183;SDS011;58887;51.980;4.464;2023-04-03T04:49:08;5.89;;;5.89;;
71183;SDS011;58887;51.980;4.464;2023-04-03T04:51:35;5.18;;;5.18;;
71183;SDS011;58887;51.980;4.464;2023-04-03T04:54:01;6.53;;;6.53;;
71183;SDS011;58887;51.980;4.464;2023-04-03T04:56:27;5.33;;;5.33;;
71183;SDS011;58887;51.980;4.464;2023-04-03T04:58:56;5.52;;;5.52;;
71183;SDS011;58887;51.980;4.464;2023-04-03T05:01:21;8.66;;;8.66;;
71183;SDS011;58887;51.980;4.464;2023-04-03T05:03:47;16.12;;;16.12;;
71183;SDS011;58887;51.980;4.464;2023-04-03T05:06:13;13.60;;;13.60;;
71183;SDS011;58887;51.980;4.464;2023-04-03T05:08:39;13.31;;;13.31;;
71183;SDS011;58887;51.980;4.464;2023-04-03T05:11:05;19.28;;;19.28;;
71183;SDS011;58887;51.980;4.464;2023-04-03T05:13:30;23.78;;;23.78;;
71183;SDS011;58887;51.980;4.464;2023-04-03T05:15:56;28.18;;;28.18;;
71183;SDS011;58887;51.980;4.464;2023-04-03T05:18:22;51.94;;;51.94;;
71183;SDS011;58887;51.980;4.464;2023-04-03T05:20:50;42.59;;;42.59;;
71183;SDS011;58887;51.980;4.464;2023-04-03T05:23:17;30.57;;;30.57;;
71183;SDS011;58887;51.980;4.464;2023-04-03T05:25:44;22.24;;;22.24;;
71183;SDS011;58887;51.980;4.464;2023-04-03T05:28:15;15.38;;;15.38;;
71183;SDS011;58887;51.980;4.464;2023-04-03T05:30:40;19.41;;;19.41;;
71183;SDS011;58887;51.980;4.464;2023-04-03T05:33:06;19.31;;;19.31;;
71183;SDS011;58887;51.980;4.464;2023-04-03T05:35:31;17.94;;;17.94;;
71183;SDS011;58887;51.980;4.464;2023-04-03T05:38:05;22.63;;;22.63;;
71183;SDS011;58887;51.980;4.464;2023-04-03T05:40:32;23.25;;;23.25;;
71183;SDS011;58887;51.980;4.464;2023-04-03T05:42:57;36.47;;;36.47;;
71183;SDS011;58887;51.980;4.464;2023-04-03T05:45:23;31.92;;;31.92;;
71183;SDS011;58887;51.980;4.464;2023-04-03T05:47:48;25.22;;;25.22;;
71183;SDS011;58887;51.980;4.464;2023-04-03T05:50:14;13.53;;;13.53;;
71183;SDS011;58887;51.980;4.464;2023-04-03T05:52:40;13.54;;;13.54;;
71183;SDS011;58887;51.980;4.464;2023-04-03T05:55:10;11.78;;;11.78;;
71183;SDS011;58887;51.980;4.464;2023-04-03T05:57:36;13.04;;;13.04;;
71183;SDS011;58887;51.980;4.464;2023-04-03T06:00:03;6.86;;;6.86;;
71183;SDS011;58887;51.980;4.464;2023-04-03T06:02:37;4.77;;;4.77;;
71183;SDS011;58887;51.980;4.464;2023-04-03T06:05:03;6.00;;;6.00;;
71183;SDS011;58887;51.980;4.464;2023-04-03T06:07:29;4.72;;;4.72;;
71183;SDS011;58887;51.980;4.464;2023-04-03T06:09:56;7.62;;;7.62;;
71183;SDS011;58887;51.980;4.464;2023-04-03T06:12:23;3.03;;;3.03;;
71183;SDS011;58887;51.980;4.464;2023-04-03T06:14:49;2.99;;;2.99;;
71183;SDS011;58887;51.980;4.464;2023-04-03T06:17:16;2.47;;;2.47;;
71183;SDS011;58887;51.980;4.464;2023-04-03T06:19:43;2.54;;;2.54;;
71183;SDS011;58887;51.980;4.464;2023-04-03T06:22:09;2.82;;;2.82;;
71183;SDS011;58887;51.980;4.464;2023-04-03T06:24:36;3.32;;;3.32;;
71183;SDS011;58887;51.980;4.464;2023-04-03T06:27:03;3.39;;;3.39;;
71183;SDS011;58887;51.980;4.464;2023-04-03T06:29:28;3.09;;;3.09;;
71183;SDS011;58887;51.980;4.464;2023-04-03T06:31:54;2.99;;;2.99;;
71183;SDS011;58887;51.980;4.464;2023-04-03T06:34:19;2.87;;;2.87;;
71183;SDS011;58887;51.980;4.464;2023-04-03T06:36:45;2.74;;;2.74;;
71183;SDS011;58887;51.980;4.464;2023-04-03T06:39:12;2.85;;;2.85;;
71183;SDS011;58887;51.980;4.464;2023-04-03T06:41:41;2.55;;;2.55;;
71183;SDS011;58887;51.980;4.464;2023-04-03T06:44:07;2.89;;;2.89;;
71183;SDS011;58887;51.980;4.464;2023-04-03T06:46:36;2.57;;;2.57;;
71183;SDS011;58887;51.980;4.464;2023-04-03T06:49:02;2.50;;;2.50;;
71183;SDS011;58887;51.980;4.464;2023-04-03T06:51:29;2.41;;;2.41;;
71183;SDS011;58887;51.980;4.464;2023-04-03T06:53:56;2.37;;;2.37;;
71183;SDS011;58887;51.980;4.464;2023-04-03T06:56:23;2.95;;;2.95;;
71183;SDS011;58887;51.980;4.464;2023-04-03T06:58:48;3.23;;;3.23;;
71183;SDS011;58887;51.980;4.464;2023-04-03T07:01:16;3.66;;;3.66;;
71183;SDS011;58887;51.980;4.464;2023-04-03T07:03:44;11.39;;;11.39;;
71183;SDS011;58887;51.980;4.464;2023-04-03T07:06:12;9.65;;;9.65;;
71183;SDS011;58887;51.980;4.464;2023-04-03T07:08:40;11.23;;;11.23;;
71183;SDS011;58887;51.980;4.464;2023-04-03T07:11:06;17.31;;;17.31;;
71183;SDS011;58887;51.980;4.464;2023-04-03T07:13:31;53.16;;;53.16;;
71183;SDS011;58887;51.980;4.464;2023-04-03T07:15:57;68.12;;;68.12;;
71183;SDS011;58887;51.980;4.464;2023-04-03T07:18:23;45.41;;;45.41;;
71183;SDS011;58887;51.980;4.464;2023-04-03T07:20:49;44.78;;;44.78;;
71183;SDS011;58887;51.980;4.464;2023-04-03T07:23:15;35.68;;;35.68;;
71183;SDS011;58887;51.980;4.464;2023-04-03T07:25:44;27.88;;;27.88;;
71183;SDS011;58887;51.980;4.464;2023-04-03T07:28:10;60.83;;;60.83;;
71183;SDS011;58887;51.980;4.464;2023-04-03T07:33:30;32.07;;;32.07;;
71183;SDS011;58887;51.980;4.464;2023-04-03T07:35:56;31.89;;;31.89;;
71183;SDS011;58887;51.980;4.464;2023-04-03T07:38:22;14.41;;;14.41;;
71183;SDS011;58887;51.980;4.464;2023-04-03T07:40:49;19.05;;;19.05;;
71183;SDS011;58887;51.980;4.464;2023-04-03T07:43:17;22.26;;;22.26;;
71183;SDS011;58887;51.980;4.464;2023-04-03T07:45:43;6.14;;;6.14;;
71183;SDS011;58887;51.980;4.464;2023-04-03T07:48:11;4.44;;;4.44;;
71183;SDS011;58887;51.980;4.464;2023-04-03T07:50:39;16.28;;;16.28;;
71183;SDS011;58887;51.980;4.464;2023-04-03T07:53:05;3.81;;;3.81;;
71183;SDS011;58887;51.980;4.464;2023-04-03T07:55:32;2.11;;;2.11;;
71183;SDS011;58887;51.980;4.464;2023-04-03T07:57:58;2.07;;;2.07;;
71183;SDS011;58887;51.980;4.464;2023-04-03T08:00:23;1.99;;;1.99;;
71183;SDS011;58887;51.980;4.464;2023-04-03T08:02:49;1.86;;;1.86;;
71183;SDS011;58887;51.980;4.464;2023-04-03T08:05:20;1.55;;;1.55;;
71183;SDS011;58887;51.980;4.464;2023-04-03T08:07:52;1.57;;;1.57;;
71183;SDS011;58887;51.980;4.464;2023-04-03T08:10:17;1.49;;;1.49;;
71183;SDS011;58887;51.980;4.464;2023-04-03T08:12:45;1.44;;;1.44;;
71183;SDS011;58887;51.980;4.464;2023-04-03T08:15:11;1.66;;;1.62;;
71183;SDS011;58887;51.980;4.464;2023-04-03T08:17:37;1.71;;;1.67;;
71183;SDS011;58887;51.980;4.464;2023-04-03T08:20:03;1.49;;;1.48;;
71183;SDS011;58887;51.980;4.464;2023-04-03T08:22:32;1.56;;;1.56;;
71183;SDS011;58887;51.980;4.464;2023-04-03T08:24:58;4.40;;;4.40;;
71183;SDS011;58887;51.980;4.464;2023-04-03T08:27:24;1.85;;;1.85;;
71183;SDS011;58887;51.980;4.464;2023-04-03T08:29:49;2.79;;;2.79;;
71183;SDS011;58887;51.980;4.464;2023-04-03T08:32:16;2.00;;;2.00;;
71183;SDS011;58887;51.980;4.464;2023-04-03T08:34:42;1.99;;;1.99;;
71183;SDS011;58887;51.980;4.464;2023-04-03T08:37:07;5.20;;;5.20;;
71183;SDS011;58887;51.980;4.464;2023-04-03T08:39:32;4.46;;;4.46;;
71183;SDS011;58887;51.980;4.464;2023-04-03T08:42:00;1.92;;;1.92;;
71183;SDS011;58887;51.980;4.464;2023-04-03T08:44:55;3.12;;;3.12;;
71183;SDS011;58887;51.980;4.464;2023-04-03T08:47:38;1.55;;;1.55;;
71183;SDS011;58887;51.980;4.464;2023-04-03T08:50:19;1.40;;;1.40;;
71183;SDS011;58887;51.980;4.464;2023-04-03T08:52:51;1.50;;;1.50;;
71183;SDS011;58887;51.980;4.464;2023-04-03T08:55:29;1.51;;;1.51;;
71183;SDS011;58887;51.980;4.464;2023-04-03T08:58:04;1.21;;;1.21;;
71183;SDS011;58887;51.980;4.464;2023-04-03T09:00:41;1.28;;;1.28;;
71183;SDS011;58887;51.980;4.464;2023-04-03T09:03:24;1.15;;;1.15;;
71183;SDS011;58887;51.980;4.464;2023-04-03T09:05:55;1.54;;;1.54;;
71183;SDS011;58887;51.980;4.464;2023-04-03T09:08:40;1.24;;;1.21;;
71183;SDS011;58887;51.980;4.464;2023-04-03T09:19:41;1.35;;;1.31;;
71183;SDS011;58887;51.980;4.464;2023-04-03T09:24:48;1.24;;;1.20;;
71183;SDS011;58887;51.980;4.464;2023-04-03T09:27:26;1.13;;;1.09;;
71183;SDS011;58887;51.980;4.464;2023-04-03T09:29:53;1.11;;;1.07;;
71183;SDS011;58887;51.980;4.464;2023-04-03T09:35:16;1.15;;;1.12;;
71183;SDS011;58887;51.980;4.464;2023-04-03T09:38:20;1.00;;;0.98;;
71183;SDS011;58887;51.980;4.464;2023-04-03T09:40:45;1.11;;;1.09;;
71183;SDS011;58887;51.980;4.464;2023-04-03T09:45:41;0.86;;;0.85;;
71183;SDS011;58887;51.980;4.464;2023-04-03T09:50:41;1.01;;;0.98;;
71183;SDS011;58887;51.980;4.464;2023-04-03T09:53:37;0.72;;;0.70;;
71183;SDS011;58887;51.980;4.464;2023-04-03T09:58:44;0.80;;;0.77;;
71183;SDS011;58887;51.980;4.464;2023-04-03T10:06:38;0.88;;;0.86;;
71183;SDS011;58887;51.980;4.464;2023-04-03T10:09:19;0.87;;;0.85;;
71183;SDS011;58887;51.980;4.464;2023-04-03T10:14:24;0.94;;;0.91;;
71183;SDS011;58887;51.980;4.464;2023-04-03T10:16:52;0.77;;;0.75;;
71183;SDS011;58887;51.980;4.464;2023-04-03T10:19:42;0.97;;;0.95;;
71183;SDS011;58887;51.980;4.464;2023-04-03T10:22:18;0.89;;;0.87;;
71183;SDS011;58887;51.980;4.464;2023-04-03T10:32:58;0.77;;;0.75;;
71183;SDS011;58887;51.980;4.464;2023-04-03T10:35:44;0.90;;;0.87;;
71183;SDS011;58887;51.980;4.464;2023-04-03T10:43:47;0.94;;;0.92;;
71183;SDS011;58887;51.980;4.464;2023-04-03T10:46:23;0.67;;;0.65;;
71183;SDS011;58887;51.980;4.464;2023-04-03T10:49:16;0.66;;;0.65;;
71183;SDS011;58887;51.980;4.464;2023-04-03T10:51:59;0.67;;;0.65;;
71183;SDS011;58887;51.980;4.464;2023-04-03T10:54:39;0.82;;;0.81;;
71183;SDS011;58887;51.980;4.464;2023-04-03T10:57:12;0.67;;;0.65;;
71183;SDS011;58887;51.980;4.464;2023-04-03T10:59:44;0.71;;;0.69;;
71183;SDS011;58887;51.980;4.464;2023-04-03T11:11:10;0.64;;;0.62;;
71183;SDS011;58887;51.980;4.464;2023-04-03T11:14:05;0.60;;;0.58;;
71183;SDS011;58887;51.980;4.464;2023-04-03T11:17:01;0.54;;;0.53;;
71183;SDS011;58887;51.980;4.464;2023-04-03T11:23:12;0.64;;;0.61;;
71183;SDS011;58887;51.980;4.464;2023-04-03T11:25:21;0.72;;;0.68;;
71183;SDS011;58887;51.980;4.464;2023-04-03T11:27:57;0.72;;;0.69;;
71183;SDS011;58887;51.980;4.464;2023-04-03T11:30:38;0.69;;;0.66;;
71183;SDS011;58887;51.980;4.464;2023-04-03T11:33:31;0.71;;;0.68;;
71183;SDS011;58887;51.980;4.464;2023-04-03T11:39:29;0.48;;;0.46;;
71183;SDS011;58887;51.980;4.464;2023-04-03T11:45:22;0.54;;;0.53;;
71183;SDS011;58887;51.980;4.464;2023-04-03T11:50:41;0.54;;;0.53;;
71183;SDS011;58887;51.980;4.464;2023-04-03T12:04:13;0.34;;;0.34;;
71183;SDS011;58887;51.980;4.464;2023-04-03T12:06:43;0.46;;;0.45;;
71183;SDS011;58887;51.980;4.464;2023-04-03T12:12:42;0.34;;;0.33;;
71183;SDS011;58887;51.980;4.464;2023-04-03T12:21:08;0.57;;;0.56;;
71183;SDS011;58887;51.980;4.464;2023-04-03T12:23:35;0.39;;;0.38;;
71183;SDS011;58887;51.980;4.464;2023-04-03T12:26:25;0.47;;;0.45;;
71183;SDS011;58887;51.980;4.464;2023-04-03T12:28:55;0.46;;;0.45;;
71183;SDS011;58887;51.980;4.464;2023-04-03T12:31:22;0.47;;;0.46;;
71183;SDS011;58887;51.980;4.464;2023-04-03T12:34:17;0.55;;;0.53;;
71183;SDS011;58887;51.980;4.464;2023-04-03T12:37:09;0.50;;;0.48;;
71183;SDS011;58887;51.980;4.464;2023-04-03T12:39:53;0.57;;;0.55;;
71183;SDS011;58887;51.980;4.464;2023-04-03T12:47:48;0.46;;;0.45;;
71183;SDS011;58887;51.980;4.464;2023-04-03T12:50:18;0.59;;;0.57;;
71183;SDS011;58887;51.980;4.464;2023-04-03T12:52:57;0.72;;;0.71;;
71183;SDS011;58887;51.980;4.464;2023-04-03T12:55:28;0.93;;;0.91;;
71183;SDS011;58887;51.980;4.464;2023-04-03T12:57:54;0.61;;;0.59;;
71183;SDS011;58887;51.980;4.464;2023-04-03T13:00:21;0.69;;;0.67;;
71183;SDS011;58887;51.980;4.464;2023-04-03T13:02:49;0.71;;;0.70;;
71183;SDS011;58887;51.980;4.464;2023-04-03T13:05:16;0.55;;;0.54;;
71183;SDS011;58887;51.980;4.464;2023-04-03T13:07:49;0.69;;;0.68;;
71183;SDS011;58887;51.980;4.464;2023-04-03T13:10:23;0.70;;;0.69;;
71183;SDS011;58887;51.980;4.464;2023-04-03T13:15:24;0.70;;;0.70;;
71183;SDS011;58887;51.980;4.464;2023-04-03T13:18:05;0.72;;;0.71;;
71183;SDS011;58887;51.980;4.464;2023-04-03T13:20:32;0.66;;;0.66;;
71183;SDS011;58887;51.980;4.464;2023-04-03T13:23:10;0.70;;;0.69;;
71183;SDS011;58887;51.980;4.464;2023-04-03T13:25:43;0.59;;;0.59;;
71183;SDS011;58887;51.980;4.464;2023-04-03T13:28:12;0.89;;;0.88;;
71183;SDS011;58887;51.980;4.464;2023-04-03T13:31:27;0.90;;;0.89;;
71183;SDS011;58887;51.980;4.464;2023-04-03T13:33:31;0.71;;;0.71;;
71183;SDS011;58887;51.980;4.464;2023-04-03T13:36:19;0.70;;;0.69;;
71183;SDS011;58887;51.980;4.464;2023-04-03T13:38:58;0.93;;;0.92;;
71183;SDS011;58887;51.980;4.464;2023-04-03T13:41:37;0.90;;;0.89;;
71183;SDS011;58887;51.980;4.464;2023-04-03T13:44:15;0.79;;;0.77;;
71183;SDS011;58887;51.980;4.464;2023-04-03T13:46:49;0.83;;;0.82;;
71183;SDS011;58887;51.980;4.464;2023-04-03T13:49:39;0.80;;;0.79;;
71183;SDS011;58887;51.980;4.464;2023-04-03T13:54:53;0.78;;;0.76;;
71183;SDS011;58887;51.980;4.464;2023-04-03T13:57:22;0.73;;;0.72;;
71183;SDS011;58887;51.980;4.464;2023-04-03T13:59:48;0.70;;;0.69;;
71183;SDS011;58887;51.980;4.464;2023-04-03T14:02:17;0.76;;;0.76;;
71183;SDS011;58887;51.980;4.464;2023-04-03T14:04:48;0.72;;;0.71;;
71183;SDS011;58887;51.980;4.464;2023-04-03T14:07:21;0.73;;;0.72;;
71183;SDS011;58887;51.980;4.464;2023-04-03T14:09:47;0.91;;;0.90;;
71183;SDS011;58887;51.980;4.464;2023-04-03T14:12:15;0.99;;;0.98;;
71183;SDS011;58887;51.980;4.464;2023-04-03T14:14:54;0.78;;;0.77;;
71183;SDS011;58887;51.980;4.464;2023-04-03T14:17:24;0.77;;;0.75;;
71183;SDS011;58887;51.980;4.464;2023-04-03T14:19:52;0.81;;;0.80;;
71183;SDS011;58887;51.980;4.464;2023-04-03T14:22:20;0.92;;;0.90;;
71183;SDS011;58887;51.980;4.464;2023-04-03T14:24:47;1.02;;;1.00;;
71183;SDS011;58887;51.980;4.464;2023-04-03T14:27:21;0.98;;;0.96;;
71183;SDS011;58887;51.980;4.464;2023-04-03T14:29:48;0.79;;;0.78;;
71183;SDS011;58887;51.980;4.464;2023-04-03T14:32:15;0.86;;;0.85;;
71183;SDS011;58887;51.980;4.464;2023-04-03T14:34:42;0.80;;;0.79;;
71183;SDS011;58887;51.980;4.464;2023-04-03T14:37:19;0.97;;;0.96;;
71183;SDS011;58887;51.980;4.464;2023-04-03T14:39:47;0.90;;;0.88;;
71183;SDS011;58887;51.980;4.464;2023-04-03T14:42:18;0.89;;;0.87;;
71183;SDS011;58887;51.980;4.464;2023-04-03T14:44:47;1.02;;;0.99;;
71183;SDS011;58887;51.980;4.464;2023-04-03T14:47:13;0.79;;;0.77;;
71183;SDS011;58887;51.980;4.464;2023-04-03T14:49:50;0.77;;;0.75;;
71183;SDS011;58887;51.980;4.464;2023-04-03T14:52:18;0.90;;;0.88;;
71183;SDS011;58887;51.980;4.464;2023-04-03T14:54:50;0.82;;;0.81;;
71183;SDS011;58887;51.980;4.464;2023-04-03T14:57:16;0.88;;;0.86;;
71183;SDS011;58887;51.980;4.464;2023-04-03T14:59:42;1.04;;;1.02;;
71183;SDS011;58887;51.980;4.464;2023-04-03T15:02:26;0.86;;;0.85;;
71183;SDS011;58887;51.980;4.464;2023-04-03T15:04:54;0.87;;;0.86;;
71183;SDS011;58887;51.980;4.464;2023-04-03T15:07:22;0.81;;;0.80;;
71183;SDS011;58887;51.980;4.464;2023-04-03T15:09:50;0.88;;;0.88;;
71183;SDS011;58887;51.980;4.464;2023-04-03T15:12:16;0.94;;;0.93;;
71183;SDS011;58887;51.980;4.464;2023-04-03T15:14:42;1.20;;;1.19;;
71183;SDS011;58887;51.980;4.464;2023-04-03T15:17:15;0.92;;;0.92;;
71183;SDS011;58887;51.980;4.464;2023-04-03T15:19:46;0.86;;;0.86;;
71183;SDS011;58887;51.980;4.464;2023-04-03T15:22:15;0.95;;;0.95;;
71183;SDS011;58887;51.980;4.464;2023-04-03T15:24:43;0.90;;;0.90;;
71183;SDS011;58887;51.980;4.464;2023-04-03T15:27:09;0.93;;;0.92;;
71183;SDS011;58887;51.980;4.464;2023-04-03T15:29:36;1.06;;;1.06;;
71183;SDS011;58887;51.980;4.464;2023-04-03T15:32:02;1.16;;;1.16;;
71183;SDS011;58887;51.980;4.464;2023-04-03T15:34:29;0.92;;;0.91;;
71183;SDS011;58887;51.980;4.464;2023-04-03T15:36:55;0.91;;;0.90;;
71183;SDS011;58887;51.980;4.464;2023-04-03T15:39:21;1.18;;;1.15;;
71183;SDS011;58887;51.980;4.464;2023-04-03T15:41:48;0.90;;;0.88;;
71183;SDS011;58887;51.980;4.464;2023-04-03T15:44:14;1.08;;;1.05;;
71183;SDS011;58887;51.980;4.464;2023-04-03T15:46:42;1.15;;;1.12;;
71183;SDS011;58887;51.980;4.464;2023-04-03T15:49:09;0.92;;;0.91;;
71183;SDS011;58887;51.980;4.464;2023-04-03T15:51:35;1.52;;;1.50;;
71183;SDS011;58887;51.980;4.464;2023-04-03T15:54:01;1.25;;;1.25;;
71183;SDS011;58887;51.980;4.464;2023-04-03T15:56:26;0.93;;;0.93;;
71183;SDS011;58887;51.980;4.464;2023-04-03T15:58:52;0.81;;;0.80;;
71183;SDS011;58887;51.980;4.464;2023-04-03T16:01:18;0.89;;;0.89;;
71183;SDS011;58887;51.980;4.464;2023-04-03T16:03:43;0.93;;;0.93;;
71183;SDS011;58887;51.980;4.464;2023-04-03T16:06:16;1.04;;;1.04;;
71183;SDS011;58887;51.980;4.464;2023-04-03T16:08:45;0.87;;;0.87;;
71183;SDS011;58887;51.980;4.464;2023-04-03T16:11:14;0.93;;;0.92;;
71183;SDS011;58887;51.980;4.464;2023-04-03T16:13:40;0.96;;;0.96;;
71183;SDS011;58887;51.980;4.464;2023-04-03T16:16:07;1.00;;;0.99;;
71183;SDS011;58887;51.980;4.464;2023-04-03T16:18:33;1.02;;;1.01;;
71183;SDS011;58887;51.980;4.464;2023-04-03T16:21:00;1.03;;;1.02;;
71183;SDS011;58887;51.980;4.464;2023-04-03T16:23:26;0.93;;;0.92;;
71183;SDS011;58887;51.980;4.464;2023-04-03T16:25:52;0.92;;;0.91;;
71183;SDS011;58887;51.980;4.464;2023-04-03T16:28:17;1.06;;;1.05;;
71183;SDS011;58887;51.980;4.464;2023-04-03T16:30:45;0.93;;;0.92;;
71183;SDS011;58887;51.980;4.464;2023-04-03T16:33:14;0.87;;;0.86;;
71183;SDS011;58887;51.980;4.464;2023-04-03T16:35:40;0.87;;;0.86;;
71183;SDS011;58887;51.980;4.464;2023-04-03T16:38:07;1.02;;;1.01;;
71183;SDS011;58887;51.980;4.464;2023-04-03T16:40:33;1.11;;;1.10;;
71183;SDS011;58887;51.980;4.464;2023-04-03T16:42:59;1.00;;;1.00;;